Time;durP1;ratioP1;P1;durP2;ratioP2;P2;SDS_P1;SDS_P2;PMS_P1;PMS_P2;Temp;Humidity;BMP_temperature;BMP_pressure;BME280_temperature;BME280_humidity;BME280_pressure;Samples;Min_cycle;Max_cycle;Signal;HPM_P1;HPM_P2
2022/12/20 00:02:02;;;;;;;7.47;3.40;;;;;;;7.72;100.00;101273.09;5093675;28;20067;-79
2022/12/20 00:04:27;;;;;;;5.45;3.13;;;;;;;7.76;100.00;101266.63;5094091;28;20118;-79
2022/12/20 00:06:53;;;;;;;7.53;3.15;;;;;;;7.83;100.00;101282.06;5094271;28;20068;-78
2022/12/20 00:09:18;;;;;;;5.45;3.22;;;;;;;7.79;100.00;101265.53;5093692;28;20063;-78
2022/12/20 00:11:43;;;;;;;8.00;3.42;;;;;;;7.79;100.00;101262.06;5093751;28;20483;-78
2022/12/20 00:14:09;;;;;;;7.40;3.50;;;;;;;7.79;100.00;101265.53;5093876;28;20452;-78
2022/12/20 00:16:36;;;;;;;6.65;3.30;;;;;;;7.83;100.00;101274.13;5093141;28;20032;-78
2022/12/20 00:19:03;;;;;;;5.68;3.25;;;;;;;7.80;100.00;101272.53;5093505;28;20063;-78
2022/12/20 00:21:30;;;;;;;9.55;3.17;;;;;;;7.80;100.00;101267.25;5093087;28;20107;-79
2022/12/20 00:23:56;;;;;;;8.65;3.13;;;;;;;7.79;100.00;101260.25;5093412;28;20031;-78
2022/12/20 00:26:24;;;;;;;6.30;2.92;;;;;;;7.76;100.00;101269.28;5074923;28;20036;-79
2022/12/20 00:28:50;;;;;;;7.20;3.45;;;;;;;7.75;100.00;101256.97;5092912;28;20034;-81
2022/12/20 00:31:18;;;;;;;6.93;3.10;;;;;;;7.79;100.00;101252.28;5093262;28;20024;-78
2022/12/20 00:33:48;;;;;;;9.13;4.20;;;;;;;7.87;100.00;101252.59;5093140;28;20032;-78
2022/12/20 00:36:15;;;;;;;6.15;3.50;;;;;;;7.85;100.00;101253.66;5092946;28;20536;-78
2022/12/20 00:38:43;;;;;;;9.40;3.20;;;;;;;7.88;100.00;101248.13;5092449;28;20036;-78
2022/12/20 00:41:13;;;;;;;5.60;3.00;;;;;;;7.86;100.00;101247.41;5093266;28;20583;-79
2022/12/20 00:43:39;;;;;;;6.93;3.33;;;;;;;7.74;100.00;101242.03;5092925;28;20035;-78
2022/12/20 00:46:06;;;;;;;5.53;3.25;;;;;;;7.69;100.00;101236.25;5093211;28;20081;-77
2022/12/20 00:48:32;;;;;;;4.63;3.13;;;;;;;7.62;100.00;101237.63;5093234;28;20129;-78
2022/12/20 00:51:18;;;;;;;9.32;3.72;;;;;;;7.48;100.00;101222.72;5093524;28;20047;-77
2022/12/20 00:53:44;;;;;;;6.97;3.50;;;;;;;7.45;100.00;101230.03;5092684;28;20122;-77
2022/12/20 00:56:10;;;;;;;6.80;3.60;;;;;;;7.45;100.00;101222.09;5093529;28;20161;-78
2022/12/20 00:58:39;;;;;;;6.25;3.00;;;;;;;7.40;100.00;101214.47;5092963;28;20031;-77
2022/12/20 01:01:06;;;;;;;6.03;3.17;;;;;;;7.42;100.00;101215.25;5093246;28;20221;-78
2022/12/20 01:03:32;;;;;;;5.50;3.53;;;;;;;7.39;100.00;101210.16;5093057;28;20490;-77
2022/12/20 01:06:00;;;;;;;5.68;3.47;;;;;;;7.34;100.00;101209.63;5093683;28;20044;-76
2022/12/20 01:08:27;;;;;;;9.88;3.47;;;;;;;7.33;100.00;101216.72;5092906;28;20083;-78
2022/12/20 01:11:07;;;;;;;5.63;3.58;;;;;;;7.29;100.00;101209.97;5092565;28;20071;-78
2022/12/20 01:13:35;;;;;;;11.55;3.45;;;;;;;7.29;100.00;101211.75;5092832;28;20085;-79
2022/12/20 01:16:10;;;;;;;7.40;3.10;;;;;;;7.35;100.00;101195.44;5092830;28;20081;-77
2022/12/20 01:18:35;;;;;;;6.32;3.67;;;;;;;7.36;100.00;101197.13;5093065;28;20032;-77
2022/12/20 01:21:06;;;;;;;8.88;3.83;;;;;;;7.41;100.00;101195.00;5092978;28;20116;-77
2022/12/20 01:23:32;;;;;;;5.40;3.10;;;;;;;7.51;100.00;101190.75;5093384;28;20024;-78
2022/12/20 01:26:00;;;;;;;5.15;3.50;;;;;;;7.55;100.00;101188.69;5074495;28;20099;-78
2022/12/20 01:28:26;;;;;;;7.80;3.25;;;;;;;7.58;100.00;101177.88;5092730;28;20036;-77
2022/12/20 01:30:51;;;;;;;5.38;3.58;;;;;;;7.55;100.00;101176.31;5092579;28;20040;-78
2022/12/20 01:33:16;;;;;;;5.47;3.25;;;;;;;7.54;100.00;101169.34;5092699;28;20078;-78
2022/12/20 01:35:42;;;;;;;6.45;3.30;;;;;;;7.60;100.00;101160.09;5092218;28;20056;-78
2022/12/20 01:38:07;;;;;;;7.55;3.42;;;;;;;7.58;100.00;101160.22;5092723;28;20099;-77
2022/12/20 01:40:32;;;;;;;5.97;2.95;;;;;;;7.58;100.00;101164.66;5092825;28;20364;-78
2022/12/20 01:42:58;;;;;;;6.43;3.72;;;;;;;7.56;100.00;101162.09;5092573;28;20027;-78
2022/12/20 01:45:29;;;;;;;5.10;3.38;;;;;;;7.58;100.00;101160.22;5092768;28;20111;-78
2022/12/20 01:47:58;;;;;;;6.90;3.42;;;;;;;7.56;100.00;101155.97;5092552;28;20031;-77
2022/12/20 01:50:24;;;;;;;7.40;3.50;;;;;;;7.57;100.00;101155.88;5094803;28;20116;-78
2022/12/20 01:52:51;;;;;;;5.28;3.20;;;;;;;7.58;100.00;101154.06;5096558;28;20482;-77
2022/12/20 01:55:23;;;;;;;4.60;2.70;;;;;;;7.61;100.00;101167.06;5096357;28;20127;-78
2022/12/20 01:58:00;;;;;;;3.15;2.78;;;;;;;7.66;100.00;101170.25;5096335;28;20103;-78
2022/12/20 02:00:25;;;;;;;4.50;3.15;;;;;;;7.73;100.00;101163.53;5096225;28;20119;-77
2022/12/20 02:02:51;;;;;;;7.60;3.17;;;;;;;7.86;100.00;101162.63;5095747;28;20454;-77
2022/12/20 02:05:22;;;;;;;6.68;3.00;;;;;;;7.95;100.00;101175.19;5095727;28;20055;-77
2022/12/20 02:07:51;;;;;;;3.85;2.97;;;;;;;8.03;100.00;101164.88;5096386;28;20032;-77
2022/12/20 02:10:19;;;;;;;5.75;2.78;;;;;;;7.98;100.00;101177.63;5096183;28;20449;-77
2022/12/20 02:12:47;;;;;;;8.45;3.03;;;;;;;7.95;100.00;101183.97;5096107;28;20040;-77
2022/12/20 02:15:21;;;;;;;5.43;3.22;;;;;;;8.02;100.00;101179.09;5096175;28;20039;-77
2022/12/20 02:18:11;;;;;;;4.57;2.90;;;;;;;8.17;100.00;101174.44;5095684;28;20469;-77
2022/12/20 02:20:55;;;;;;;5.32;2.97;;;;;;;8.10;100.00;101182.00;5095796;28;20093;-78
2022/12/20 02:23:46;;;;;;;5.45;2.88;;;;;;;8.05;100.00;101178.84;5078292;28;20537;-77
2022/12/20 02:26:36;;;;;;;9.00;3.17;;;;;;;7.99;100.00;101167.88;5095976;28;20028;-77
2022/12/20 02:29:04;;;;;;;6.88;2.85;;;;;;;7.93;100.00;101171.81;5095813;28;20028;-77
2022/12/20 02:31:37;;;;;;;5.57;3.30;;;;;;;7.92;100.00;101178.91;5095641;28;20495;-77
2022/12/20 02:34:05;;;;;;;5.32;3.25;;;;;;;7.99;100.00;101162.59;5096011;28;20032;-76
2022/12/20 02:36:31;;;;;;;4.25;3.03;;;;;;;8.00;100.00;101183.66;5095779;28;20035;-78
2022/12/20 02:38:56;;;;;;;4.03;2.80;;;;;;;8.00;100.00;101159.81;5095339;28;20090;-76
2022/12/20 02:42:00;;;;;;;4.57;3.30;;;;;;;7.97;100.00;101165.31;5095129;28;20036;-77
2022/12/20 02:47:20;;;;;;;5.90;2.97;;;;;;;8.00;100.00;101151.88;5092147;28;20153;-77
2022/12/20 02:49:48;;;;;;;6.22;3.03;;;;;;;7.97;100.00;101145.94;5094796;28;20028;-77
2022/12/20 02:52:14;;;;;;;9.73;3.17;;;;;;;8.02;100.00;101138.50;5095179;28;20036;-77
2022/12/20 02:54:40;;;;;;;7.53;3.50;;;;;;;8.03;100.00;101140.16;5095301;28;20500;-78
2022/12/20 02:57:17;;;;;;;5.35;2.97;;;;;;;8.05;100.00;101133.81;5095057;28;20116;-77
2022/12/20 03:00:01;;;;;;;5.78;3.00;;;;;;;8.14;100.00;101134.91;5095367;28;20036;-78
2022/12/20 03:02:28;;;;;;;5.07;3.00;;;;;;;8.14;100.00;101134.09;5094463;28;20024;-77
2022/12/20 03:04:54;;;;;;;5.63;3.28;;;;;;;8.13;100.00;101146.47;5094478;28;20040;-76
2022/12/20 03:07:21;;;;;;;6.53;2.90;;;;;;;8.23;100.00;101138.69;5095115;28;20052;-78
2022/12/20 03:09:47;;;;;;;5.40;3.20;;;;;;;8.27;100.00;101148.06;5094820;28;20476;-78
2022/12/20 03:12:14;;;;;;;6.13;3.40;;;;;;;8.27;100.00;101135.69;5094562;28;20050;-77
2022/12/20 03:14:40;;;;;;;5.72;3.03;;;;;;;8.37;100.00;101146.41;5094373;28;20337;-77
2022/12/20 03:17:06;;;;;;;9.38;3.03;;;;;;;8.40;100.00;101138.22;5094814;28;20085;-77
2022/12/20 03:19:32;;;;;;;3.92;2.83;;;;;;;8.53;100.00;101147.94;5095089;28;20101;-76
2022/12/20 03:21:58;;;;;;;5.22;3.05;;;;;;;8.50;100.00;101145.53;5094294;28;20035;-77
2022/12/20 03:24:23;;;;;;;7.55;3.13;;;;;;;8.48;100.00;101148.28;5094473;28;20040;-76
2022/12/20 03:26:49;;;;;;;4.85;3.00;;;;;;;8.45;100.00;101141.41;5094937;28;20426;-77
2022/12/20 03:29:14;;;;;;;5.82;3.15;;;;;;;8.40;100.00;101127.59;5076309;28;20035;-78
2022/12/20 03:31:40;;;;;;;4.25;2.83;;;;;;;8.38;100.00;101134.00;5094652;28;20043;-77
2022/12/20 03:34:05;;;;;;;5.85;2.83;;;;;;;8.44;100.00;101133.56;5094395;28;20027;-77
2022/12/20 03:36:30;;;;;;;6.82;2.90;;;;;;;8.40;100.00;101124.13;5094578;28;20055;-77
2022/12/20 03:38:56;;;;;;;11.18;3.55;;;;;;;8.39;100.00;101133.03;5094315;28;20055;-77
2022/12/20 03:41:22;;;;;;;5.05;2.78;;;;;;;8.35;100.00;101131.59;5076048;28;20036;-76
2022/12/20 03:43:48;;;;;;;6.13;3.10;;;;;;;8.32;100.00;101129.19;5094153;28;20032;-77
2022/12/20 03:46:14;;;;;;;3.92;2.70;;;;;;;8.29;100.00;101151.47;5093799;28;20028;-78
2022/12/20 03:48:39;;;;;;;4.53;2.88;;;;;;;8.36;100.00;101128.81;5093828;28;20051;-77
2022/12/20 03:51:05;;;;;;;7.13;3.15;;;;;;;8.35;100.00;101135.09;5093963;28;20109;-77
2022/12/20 03:53:30;;;;;;;7.65;2.83;;;;;;;8.39;100.00;101143.63;5094074;28;20043;-77
2022/12/20 03:55:56;;;;;;;7.03;2.95;;;;;;;8.38;100.00;101129.53;5075953;28;20035;-77
2022/12/20 03:58:22;;;;;;;7.88;3.03;;;;;;;8.34;100.00;101146.66;5076040;28;20059;-77
2022/12/20 04:00:47;;;;;;;6.55;3.08;;;;;;;8.32;100.00;101134.50;5094075;28;20434;-79
2022/12/20 04:03:13;;;;;;;6.32;3.15;;;;;;;8.32;100.00;101132.66;5094360;28;20035;-78
2022/12/20 04:05:38;;;;;;;5.22;3.20;;;;;;;8.38;100.00;101132.19;5093929;28;20028;-78
2022/12/20 04:08:03;;;;;;;5.03;2.70;;;;;;;8.41;100.00;101133.78;5075807;28;20071;-79
2022/12/20 04:10:29;;;;;;;5.65;3.15;;;;;;;8.40;100.00;101127.59;5093672;28;20060;-79
2022/12/20 04:12:54;;;;;;;6.22;3.03;;;;;;;8.35;100.00;101126.28;5092792;28;20067;-79
2022/12/20 04:15:20;;;;;;;7.53;3.20;;;;;;;8.34;100.00;101128.09;5093729;28;20039;-78
2022/12/20 04:17:45;;;;;;;6.18;3.20;;;;;;;8.35;100.00;101124.47;5093751;28;20028;-78
2022/12/20 04:20:17;;;;;;;5.47;3.50;;;;;;;8.33;100.00;101138.81;5093460;28;20432;-78
2022/12/20 04:22:47;;;;;;;8.20;4.43;;;;;;;8.31;100.00;101136.28;5094027;28;20025;-78
2022/12/20 04:25:12;;;;;;;9.32;3.30;;;;;;;8.26;100.00;101127.84;5093365;28;20032;-77
2022/12/20 04:27:38;;;;;;;4.88;3.45;;;;;;;8.18;100.00;101120.47;5093581;28;20024;-77
2022/12/20 04:30:03;;;;;;;5.95;3.33;;;;;;;8.14;100.00;101120.84;5093575;28;20028;-76
2022/12/20 04:32:29;;;;;;;6.50;3.38;;;;;;;8.14;100.00;101120.84;5093401;28;20049;-77
2022/12/20 04:34:54;;;;;;;6.72;3.40;;;;;;;8.12;100.00;101113.81;5075259;28;20353;-77
2022/12/20 04:37:19;;;;;;;5.68;3.55;;;;;;;8.06;100.00;101110.78;5093205;28;20063;-77
2022/12/20 04:39:45;;;;;;;5.50;3.67;;;;;;;8.04;100.00;101113.56;5093239;28;20039;-77
2022/12/20 04:42:10;;;;;;;5.05;3.35;;;;;;;8.02;100.00;101104.88;5093201;28;20040;-78
2022/12/20 04:44:35;;;;;;;6.80;3.90;;;;;;;8.00;100.00;101098.00;5093523;28;20032;-77
2022/12/20 04:47:01;;;;;;;7.93;4.85;;;;;;;7.99;100.00;101088.38;5092779;28;20033;-79
2022/12/20 04:49:26;;;;;;;6.35;3.70;;;;;;;7.91;100.00;101095.09;5093499;28;20041;-79
2022/12/20 04:51:51;;;;;;;7.47;4.03;;;;;;;7.94;100.00;101091.34;5093160;28;20040;-77
2022/12/20 04:54:17;;;;;;;8.25;3.92;;;;;;;7.93;100.00;101105.59;5093611;28;20020;-79
2022/12/20 04:56:42;;;;;;;5.00;3.28;;;;;;;7.93;100.00;101100.28;5093034;28;20053;-77
2022/12/20 04:59:08;;;;;;;9.00;3.97;;;;;;;7.95;100.00;101088.59;5075236;28;20035;-77
2022/12/20 05:01:33;;;;;;;7.78;3.50;;;;;;;7.97;100.00;101095.59;5092893;28;20067;-77
2022/12/20 05:03:58;;;;;;;6.80;3.60;;;;;;;8.06;100.00;101089.59;5093675;28;20453;-78
2022/12/20 05:06:24;;;;;;;6.35;3.30;;;;;;;8.10;100.00;101081.28;5092841;28;20048;-77
2022/12/20 05:08:49;;;;;;;5.82;3.25;;;;;;;8.10;100.00;101069.84;5093423;28;20046;-77
2022/12/20 05:11:14;;;;;;;8.82;3.53;;;;;;;8.14;100.00;101058.06;5092862;28;20075;-77
2022/12/20 05:13:40;;;;;;;5.05;2.95;;;;;;;8.18;100.00;101069.25;5092827;28;20460;-77
2022/12/20 05:16:06;;;;;;;8.80;3.50;;;;;;;8.21;100.00;101069.00;5092892;28;20106;-77
2022/12/20 05:18:31;;;;;;;4.35;3.10;;;;;;;8.25;100.00;101059.88;5093044;28;20043;-76
2022/12/20 05:26:30;;;;;;;5.15;3.05;;;;;;;8.27;100.00;101064.09;5096545;28;20089;-78
2022/12/20 05:28:56;;;;;;;8.68;4.30;;;;;;;8.30;100.00;101034.69;5096780;28;20051;-78
2022/12/20 05:31:21;;;;;;;4.75;3.13;;;;;;;8.33;100.00;101041.56;5096697;28;20426;-78
2022/12/20 05:33:46;;;;;;;5.57;2.72;;;;;;;8.36;100.00;101043.97;5097069;28;20024;-77
2022/12/20 05:36:12;;;;;;;4.55;3.10;;;;;;;8.43;100.00;101036.38;5097014;28;20032;-77
2022/12/20 05:38:38;;;;;;;7.05;3.17;;;;;;;8.38;100.00;101044.69;5096771;28;20476;-77
2022/12/20 05:41:04;;;;;;;6.20;2.90;;;;;;;8.34;100.00;101034.47;5096133;28;20039;-78
2022/12/20 05:43:30;;;;;;;5.25;3.45;;;;;;;8.34;100.00;101039.75;5096416;28;20473;-77
2022/12/20 05:45:55;;;;;;;5.55;3.10;;;;;;;8.36;100.00;101030.72;5096697;28;20106;-77
2022/12/20 05:48:20;;;;;;;4.05;3.03;;;;;;;8.36;100.00;101030.72;5096031;28;20076;-77
2022/12/20 05:50:46;;;;;;;4.28;2.83;;;;;;;8.34;100.00;101031.81;5096377;28;20067;-77
2022/12/20 05:53:14;;;;;;;4.95;3.05;;;;;;;8.32;100.00;101028.44;5096077;28;20409;-77
2022/12/20 05:55:44;;;;;;;4.00;2.75;;;;;;;8.32;100.00;101025.78;5096004;28;20035;-77
2022/12/20 05:58:12;;;;;;;3.33;2.80;;;;;;;8.32;100.00;101031.91;5096160;28;20024;-79
2022/12/20 06:00:39;;;;;;;7.05;3.20;;;;;;;8.38;100.00;101028.78;5096556;28;20028;-77
2022/12/20 06:03:05;;;;;;;5.38;3.00;;;;;;;8.44;100.00;101024.84;5096861;28;20040;-77
2022/12/20 06:05:30;;;;;;;5.05;2.72;;;;;;;8.57;100.00;101030.00;5096044;28;20085;-77
2022/12/20 06:07:56;;;;;;;9.48;3.03;;;;;;;8.64;100.00;101026.78;5077805;28;20404;-77
2022/12/20 06:10:21;;;;;;;5.10;2.55;;;;;;;8.72;100.00;101023.50;5096067;28;20118;-78
2022/12/20 06:12:47;;;;;;;4.00;2.60;;;;;;;8.80;100.00;101022.88;5095868;28;20538;-77
2022/12/20 06:15:14;;;;;;;5.85;2.80;;;;;;;8.86;100.00;101016.25;5095562;28;20089;-79
2022/12/20 06:17:39;;;;;;;8.18;2.70;;;;;;;8.90;100.00;101025.66;5096083;28;20484;-77
2022/12/20 06:20:05;;;;;;;4.47;2.60;;;;;;;8.88;100.00;101028.41;5095474;28;20071;-77
2022/12/20 06:22:31;;;;;;;6.75;2.58;;;;;;;9.01;100.00;101022.97;5095226;28;20040;-77
2022/12/20 06:24:56;;;;;;;7.78;2.92;;;;;;;9.03;100.00;101026.31;5095912;28;20107;-78
2022/12/20 06:27:21;;;;;;;4.80;2.50;;;;;;;8.97;100.00;101026.81;5077305;28;20036;-78
2022/12/20 06:29:50;;;;;;;7.57;3.00;;;;;;;8.93;100.00;101030.72;5095569;28;20032;-78
2022/12/20 06:32:17;;;;;;;8.07;2.60;;;;;;;8.94;100.00;101025.28;5095818;28;20035;-80
2022/12/20 06:34:42;;;;;;;10.48;3.00;;;;;;;8.95;100.00;101024.31;5095945;28;20028;-77
2022/12/20 06:37:07;;;;;;;6.05;2.70;;;;;;;8.91;100.00;101022.88;5094987;28;20039;-76
2022/12/20 06:39:33;;;;;;;5.45;2.53;;;;;;;8.89;100.00;101023.97;5076934;28;20032;-75
2022/12/20 06:41:58;;;;;;;5.47;2.58;;;;;;;8.90;100.00;101021.19;5095376;28;20059;-76
2022/12/20 06:44:23;;;;;;;6.85;3.17;;;;;;;8.88;100.00;101017.78;5095179;28;20024;-77
2022/12/20 06:46:49;;;;;;;4.53;2.78;;;;;;;8.87;100.00;101013.47;5060278;28;20032;-82
2022/12/20 06:49:14;;;;;;;6.07;2.70;;;;;;;8.85;100.00;101014.56;5077117;28;20058;-80
2022/12/20 06:51:39;;;;;;;5.72;2.78;;;;;;;8.80;100.00;101023.72;5094836;28;20039;-78
2022/12/20 06:54:05;;;;;;;6.32;2.70;;;;;;;8.95;100.00;101026.94;5094685;28;20032;-79
2022/12/20 06:56:30;;;;;;;9.73;2.83;;;;;;;8.98;100.00;101028.53;5076386;28;20044;-78
2022/12/20 06:58:55;;;;;;;4.13;2.90;;;;;;;8.98;100.00;101033.84;5077446;28;20067;-76
2022/12/20 07:01:21;;;;;;;11.98;3.85;;;;;;;8.98;100.00;101025.88;5094468;28;20460;-77
2022/12/20 07:03:46;;;;;;;3.92;2.55;;;;;;;8.99;100.00;101022.25;5076792;28;20073;-80
2022/12/20 07:06:12;;;;;;;3.83;2.67;;;;;;;9.01;100.00;101025.63;5095558;28;20100;-75
2022/12/20 07:08:37;;;;;;;5.35;2.65;;;;;;;8.99;100.00;101028.41;5094279;28;20456;-74
2022/12/20 07:11:06;;;;;;;6.35;2.70;;;;;;;8.99;100.00;101031.06;5094298;28;20085;-78
2022/12/20 07:13:33;;;;;;;4.10;2.40;;;;;;;8.99;100.00;101040.84;5094970;28;20111;-76
2022/12/20 07:16:00;;;;;;;3.40;2.50;;;;;;;9.07;100.00;101027.78;5094091;28;20028;-75
2022/12/20 07:18:25;;;;;;;9.40;2.70;;;;;;;9.14;100.00;101022.81;5093864;28;20024;-79
2022/12/20 07:20:51;;;;;;;4.18;2.63;;;;;;;9.16;100.00;101034.97;5093912;28;20550;-77
2022/12/20 07:23:17;;;;;;;6.43;2.40;;;;;;;9.15;100.00;101024.50;5094371;28;20089;-75
2022/12/20 07:25:43;;;;;;;7.47;3.00;;;;;;;9.12;100.00;101024.75;5094603;28;20036;-76
2022/12/20 07:28:08;;;;;;;7.25;2.70;;;;;;;9.12;100.00;101022.09;5094252;28;20115;-76
2022/12/20 07:30:34;;;;;;;3.70;2.50;;;;;;;9.03;100.00;101021.03;5093714;28;20469;-75
2022/12/20 07:32:59;;;;;;;5.68;2.55;;;;;;;8.97;100.00;101014.41;5093644;28;20460;-75
2022/12/20 07:35:25;;;;;;;5.90;2.63;;;;;;;8.88;100.00;101020.44;5094022;28;20137;-77
2022/12/20 07:37:51;;;;;;;4.88;2.67;;;;;;;8.82;100.00;101019.16;5093563;28;20460;-77
2022/12/20 07:40:16;;;;;;;3.88;2.45;;;;;;;8.79;100.00;101019.41;5076060;28;20039;-76
2022/12/20 07:42:41;;;;;;;5.00;2.70;;;;;;;8.89;100.00;101035.41;5075572;28;20035;-76
2022/12/20 07:45:07;;;;;;;4.25;2.53;;;;;;;8.84;100.00;101016.38;5076169;28;20089;-76
2022/12/20 07:47:34;;;;;;;5.75;2.88;;;;;;;8.77;100.00;101020.47;5093243;28;20058;-77
2022/12/20 07:50:01;;;;;;;9.38;2.53;;;;;;;8.70;100.00;101025.41;5093635;28;20036;-76
2022/12/20 07:52:28;;;;;;;4.07;2.78;;;;;;;8.66;100.00;101026.66;5093521;28;20038;-76
2022/12/20 07:55:00;;;;;;;8.32;2.90;;;;;;;8.56;100.00;101021.22;5094634;28;20478;-76
2022/12/20 07:57:30;;;;;;;9.55;3.20;;;;;;;8.47;100.00;101038.69;5093383;28;20050;-77
2022/12/20 07:59:59;;;;;;;5.38;2.85;;;;;;;8.45;100.00;101040.63;5093623;28;20028;-76
2022/12/20 08:02:36;;;;;;;9.77;3.10;;;;;;;8.34;100.00;101043.25;5093473;28;20081;-78
2022/12/20 08:05:04;;;;;;;4.68;2.72;;;;;;;8.26;100.00;101037.72;5093495;28;20035;-77
2022/12/20 08:07:30;;;;;;;7.35;3.08;;;;;;;8.17;100.00;101043.72;5093076;28;20455;-78
2022/12/20 08:09:56;;;;;;;8.07;2.90;;;;;;;8.07;100.00;101054.19;5093375;28;20105;-78
2022/12/20 08:12:25;;;;;;;9.23;3.15;;;;;;;8.00;100.00;101051.16;5093482;28;20035;-76
2022/12/20 08:14:55;;;;;;;7.78;3.22;;;;;;;7.91;100.00;101046.53;5093145;28;20073;-76
2022/12/20 08:17:21;;;;;;;7.93;3.13;;;;;;;7.86;100.00;101046.06;5093980;28;20043;-77
2022/12/20 08:19:47;;;;;;;7.32;3.13;;;;;;;7.81;100.00;101045.56;5093049;28;20028;-77
2022/12/20 08:22:13;;;;;;;8.40;3.22;;;;;;;7.75;100.00;101049.53;5092975;28;20122;-77
2022/12/20 08:24:39;;;;;;;7.68;3.40;;;;;;;7.73;100.00;101031.09;5093081;28;20036;-74
2022/12/20 08:27:04;;;;;;;7.28;2.97;;;;;;;7.71;100.00;101050.72;5093344;28;20039;-74
2022/12/20 08:29:30;;;;;;;5.60;3.20;;;;;;;7.71;100.00;101032.16;5093928;28;20038;-78
2022/12/20 08:31:55;;;;;;;5.32;2.97;;;;;;;7.66;100.00;101031.66;5093173;28;20032;-75
2022/12/20 08:34:21;;;;;;;6.55;3.38;;;;;;;7.66;100.00;101037.81;5093304;28;20032;-75
2022/12/20 08:36:46;;;;;;;5.65;2.70;;;;;;;7.67;100.00;101041.31;5093425;28;20032;-74
2022/12/20 08:39:12;;;;;;;4.68;3.03;;;;;;;7.67;100.00;101042.13;5093307;28;20032;-74
2022/12/20 08:41:37;;;;;;;4.97;3.10;;;;;;;7.69;100.00;101042.88;5093149;28;20038;-74
2022/12/20 08:44:04;;;;;;;5.05;2.70;;;;;;;7.70;100.00;101041.06;5093273;28;20032;-74
2022/12/20 08:46:30;;;;;;;7.28;3.30;;;;;;;7.70;100.00;101026.03;5093958;28;20039;-76
2022/12/20 08:48:55;;;;;;;5.70;3.33;;;;;;;7.72;100.00;101034.72;5093188;28;20024;-74
2022/12/20 08:51:20;;;;;;;5.05;2.83;;;;;;;7.78;100.00;101041.34;5092507;28;20071;-76
2022/12/20 08:53:46;;;;;;;7.70;2.90;;;;;;;7.77;100.00;101039.66;5092803;28;20028;-77
2022/12/20 08:56:16;;;;;;;3.90;2.50;;;;;;;7.81;100.00;101046.41;5092552;28;20544;-76
2022/12/20 08:58:43;;;;;;;11.00;2.85;;;;;;;7.89;100.00;101059.91;5093609;28;20032;-76
2022/12/20 09:01:12;;;;;;;7.95;3.00;;;;;;;7.91;100.00;101049.19;5099501;28;20032;-76
2022/12/20 09:03:39;;;;;;;4.93;2.60;;;;;;;7.93;100.00;101044.66;5099100;28;20048;-77
2022/12/20 09:06:07;;;;;;;5.88;3.08;;;;;;;7.91;100.00;101043.91;5099657;28;20529;-77
2022/12/20 09:08:34;;;;;;;8.02;2.90;;;;;;;7.91;100.00;101042.13;5081379;28;20098;-76
2022/12/20 09:11:08;;;;;;;7.88;2.75;;;;;;;7.93;100.00;101044.66;5099682;28;20032;-76
2022/12/20 09:13:33;;;;;;;5.90;2.70;;;;;;;7.95;100.00;101048.84;5099915;28;20480;-75
2022/12/20 09:16:03;;;;;;;4.38;2.45;;;;;;;7.97;100.00;101045.25;5099235;28;20067;-76
2022/12/20 09:18:29;;;;;;;7.20;3.10;;;;;;;7.95;100.00;101040.91;5099771;28;20073;-76
2022/12/20 09:20:54;;;;;;;3.63;2.90;;;;;;;7.95;100.00;101030.28;5099596;28;20047;-76
2022/12/20 09:23:20;;;;;;;4.50;3.00;;;;;;;7.95;100.00;101032.94;5099892;28;20043;-75
2022/12/20 09:25:45;;;;;;;7.47;2.83;;;;;;;7.94;100.00;101044.53;5099261;28;20036;-77
2022/12/20 09:28:10;;;;;;;5.68;2.83;;;;;;;7.99;100.00;101054.78;5081575;28;20040;-77
2022/12/20 09:30:36;;;;;;;7.68;2.75;;;;;;;8.04;100.00;101043.81;5099433;28;20032;-75
2022/12/20 09:33:01;;;;;;;5.95;2.72;;;;;;;8.05;100.00;101045.50;5098988;28;20038;-76
2022/12/20 09:35:27;;;;;;;4.68;2.95;;;;;;;8.05;100.00;101040.22;5099660;28;20036;-76
2022/12/20 09:37:52;;;;;;;8.48;2.92;;;;;;;8.06;100.00;101044.53;5099480;28;20024;-75
2022/12/20 09:40:20;;;;;;;5.65;3.00;;;;;;;8.05;100.00;101051.66;5099114;28;20093;-75
2022/12/20 09:42:47;;;;;;;8.25;3.10;;;;;;;8.06;100.00;101047.19;5099310;28;20032;-75
2022/12/20 09:45:23;;;;;;;11.05;3.00;;;;;;;8.06;100.00;101044.53;5099879;28;20036;-75
2022/12/20 09:47:49;;;;;;;8.70;3.63;;;;;;;8.10;100.00;101046.81;5099471;28;20105;-76
2022/12/20 09:50:16;;;;;;;7.68;3.20;;;;;;;8.09;100.00;101046.94;5099271;28;20369;-76
2022/12/20 09:53:04;;;;;;;8.25;2.95;;;;;;;8.11;100.00;101055.63;5099196;28;20027;-76
2022/12/20 09:55:32;;;;;;;7.97;3.15;;;;;;;8.09;100.00;101052.25;5099762;28;20047;-76
2022/12/20 09:58:18;;;;;;;7.93;3.55;;;;;;;8.10;100.00;101046.00;5099287;28;20096;-76
2022/12/20 10:00:48;;;;;;;8.15;3.13;;;;;;;8.07;100.00;101054.19;5081875;28;20044;-76
2022/12/20 10:03:31;;;;;;;8.45;3.10;;;;;;;8.04;100.00;101047.31;5099179;28;20119;-76
2022/12/20 10:06:20;;;;;;;6.43;2.95;;;;;;;8.02;100.00;101046.59;5099145;28;20024;-76
2022/12/20 10:08:56;;;;;;;6.18;3.08;;;;;;;8.02;100.00;101043.94;5081131;28;20370;-77
2022/12/20 10:11:49;;;;;;;8.90;3.25;;;;;;;8.02;100.00;101040.44;5097870;28;20038;-79
2022/12/20 10:14:52;;;;;;;6.95;3.15;;;;;;;8.01;100.00;101042.22;5096052;28;20035;-75
2022/12/20 10:17:42;;;;;;;7.55;3.10;;;;;;;8.02;100.00;101041.28;5095842;28;20495;-76
2022/12/20 10:20:22;;;;;;;6.70;2.85;;;;;;;8.04;100.00;101036.69;5096340;28;20031;-76
2022/12/20 10:23:00;;;;;;;5.68;3.13;;;;;;;8.04;100.00;101052.59;5096002;28;20115;-77
2022/12/20 10:25:31;;;;;;;11.82;3.75;;;;;;;8.03;100.00;101039.47;5096650;28;20092;-77
2022/12/20 10:27:56;;;;;;;9.23;3.07;;;;;;;8.06;100.00;101044.53;5078180;28;20032;-77
2022/12/20 10:30:24;;;;;;;7.15;3.20;;;;;;;8.06;100.00;101050.69;5096044;28;20479;-77
2022/12/20 10:32:54;;;;;;;7.28;3.28;;;;;;;8.06;100.00;101041.88;5095872;28;20028;-77
2022/12/20 10:35:27;;;;;;;8.40;3.33;;;;;;;8.04;100.00;101044.66;5095668;28;20084;-77
2022/12/20 10:38:02;;;;;;;7.97;3.55;;;;;;;8.10;100.00;101044.16;5095344;28;20031;-78
2022/12/20 10:40:41;;;;;;;6.53;3.53;;;;;;;8.11;100.00;101035.28;5095329;28;20028;-77
2022/12/20 10:43:15;;;;;;;8.90;3.50;;;;;;;8.11;100.00;101045.03;5077777;28;20080;-79
2022/12/20 10:45:42;;;;;;;6.53;3.58;;;;;;;8.13;100.00;101045.75;5095629;28;20024;-77
2022/12/20 10:48:25;;;;;;;8.20;3.63;;;;;;;8.14;100.00;101039.50;5095069;28;20468;-76
2022/12/20 10:50:58;;;;;;;14.88;4.38;;;;;;;8.16;100.00;101042.88;5095184;28;20039;-76
2022/12/20 10:53:24;;;;;;;11.45;4.57;;;;;;;8.16;100.00;101032.25;5094879;28;20034;-76
2022/12/20 10:55:51;;;;;;;7.60;4.20;;;;;;;8.13;100.00;101029.84;5094883;28;20110;-76
2022/12/20 10:58:31;;;;;;;8.65;4.15;;;;;;;8.12;100.00;101030.81;5077481;28;20406;-75
2022/12/20 11:01:16;;;;;;;7.50;3.90;;;;;;;8.15;100.00;101024.44;5094839;28;20032;-75
2022/12/20 11:03:54;;;;;;;6.47;4.10;;;;;;;8.21;100.00;101034.56;5094920;28;20031;-75
2022/12/20 11:06:22;;;;;;;9.13;4.25;;;;;;;8.20;100.00;101049.63;5094582;28;20049;-75
2022/12/20 11:08:48;;;;;;;6.30;3.85;;;;;;;8.19;100.00;101026.72;5095738;28;20044;-77
2022/12/20 11:11:23;;;;;;;9.27;4.43;;;;;;;8.20;100.00;101022.28;5094794;28;20048;-76
2022/12/20 11:13:50;;;;;;;7.32;4.28;;;;;;;8.20;100.00;101023.13;5094699;28;20032;-78
2022/12/20 11:16:37;;;;;;;12.43;4.50;;;;;;;8.26;100.00;101032.41;5094563;28;20035;-76
2022/12/20 11:19:26;;;;;;;9.95;4.35;;;;;;;8.28;100.00;101027.81;5094254;28;20035;-76
2022/12/20 11:22:15;;;;;;;11.68;4.35;;;;;;;8.28;100.00;101027.81;5094387;28;20028;-76
2022/12/20 11:25:06;;;;;;;6.97;4.22;;;;;;;8.26;100.00;101027.09;5076962;28;20036;-76
2022/12/20 11:28:00;;;;;;;9.52;4.22;;;;;;;8.30;100.00;101033.88;5094940;28;20036;-76
2022/12/20 11:31:04;;;;;;;6.95;4.53;;;;;;;8.35;100.00;101031.69;5093578;28;20126;-75
2022/12/20 11:33:49;;;;;;;8.55;4.55;;;;;;;8.34;100.00;101022.03;5094216;28;20062;-76
2022/12/20 11:36:51;;;;;;;9.52;4.78;;;;;;;8.36;100.00;101020.13;5094642;28;20028;-76
2022/12/20 11:39:16;;;;;;;7.22;4.80;;;;;;;8.38;100.00;101022.66;5094726;28;20115;-75
2022/12/20 11:41:54;;;;;;;7.38;4.50;;;;;;;8.39;100.00;101025.19;5094403;28;20325;-76